createdAt,value
2022-09-23T00:01:18.099Z,4.37
2022-09-23T00:04:20.299Z,4.10
2022-09-23T00:07:21.852Z,4.20
2022-09-23T00:10:25.799Z,4.30
2022-09-23T00:13:27.364Z,3.37
2022-09-23T00:16:33.343Z,4.80
2022-09-23T00:19:35.159Z,4.70
2022-09-23T00:22:37.543Z,3.90
2022-09-23T00:25:39.235Z,4.13
2022-09-23T00:28:41.052Z,5.50
2022-09-23T00:31:42.593Z,4.70
2022-09-23T00:34:44.880Z,4.47
2022-09-23T00:37:46.518Z,4.43
2022-09-23T00:40:48.263Z,4.60
2022-09-23T00:43:56.075Z,5.00
2022-09-23T00:46:57.659Z,5.47
2022-09-23T00:50:20.285Z,4.20
2022-09-23T00:53:26.468Z,5.17
2022-09-23T00:56:29.346Z,5.10
2022-09-23T00:59:32.194Z,5.10
2022-09-23T01:02:34.094Z,4.50
2022-09-23T01:05:39.894Z,4.43
2022-09-23T01:08:44.333Z,4.70
2022-09-23T01:11:56.611Z,4.50
2022-09-23T01:15:08.846Z,4.47
2022-09-23T01:18:26.970Z,4.90
2022-09-23T01:21:34.503Z,5.00
2022-09-23T01:24:54.923Z,5.10
2022-09-23T01:28:14.985Z,5.33
2022-09-23T01:31:33.958Z,5.63
2022-09-23T15:31:26.635Z,5.87
2022-09-23T15:34:28.346Z,5.73
2022-09-23T15:37:34.156Z,5.20
2022-09-23T15:40:38.692Z,5.63
2022-09-23T15:43:41.755Z,5.90
2022-09-23T15:46:47.040Z,5.23
2022-09-23T15:49:48.728Z,5.73
2022-09-23T15:52:50.440Z,5.57
2022-09-23T15:55:52.338Z,5.73
2022-09-23T15:58:54.166Z,5.80
2022-09-23T16:01:56.686Z,5.47
2022-09-23T16:04:58.373Z,6.70
2022-09-23T16:08:03.734Z,6.40
2022-09-23T16:11:19.454Z,5.33
2022-09-23T16:14:21.053Z,5.10
2022-09-23T16:17:22.933Z,5.87
2022-09-23T16:20:29.540Z,6.17
2022-09-23T16:23:39.449Z,6.30
2022-09-23T16:26:41.121Z,5.80
2022-09-23T16:29:42.682Z,6.00
2022-09-23T16:32:44.339Z,5.40
2022-09-23T16:35:45.916Z,5.20
2022-09-23T16:38:48.038Z,5.30
2022-09-23T16:41:49.801Z,5.10
2022-09-23T16:44:51.359Z,5.17
2022-09-23T16:47:54.110Z,5.30
2022-09-23T16:50:55.696Z,5.20
2022-09-23T16:53:59.355Z,4.80
2022-09-23T16:57:00.915Z,5.23
2022-09-23T17:00:23.701Z,4.83
2022-09-23T17:03:40.911Z,5.50
2022-09-23T17:06:44.249Z,6.57
2022-09-23T17:09:45.900Z,6.20
2022-09-23T17:12:47.484Z,6.07
2022-09-23T17:15:49.654Z,5.70
2022-09-23T17:18:51.820Z,6.27
2022-09-23T17:21:53.551Z,5.43
2022-09-23T17:24:55.452Z,5.30
2022-09-23T17:27:57.775Z,5.00
2022-09-23T17:31:01.584Z,5.63
2022-09-23T17:34:03.160Z,6.80
2022-09-23T17:37:04.810Z,5.30
2022-09-23T17:40:07.051Z,17.80
2022-09-23T17:43:08.684Z,44.93
2022-09-23T17:46:12.641Z,22.83
2022-09-23T17:49:14.944Z,14.03
2022-09-23T17:52:17.580Z,12.00
2022-09-23T17:55:19.926Z,10.70
2022-09-23T17:58:25.464Z,8.67
2022-09-23T18:01:27.611Z,11.10
2022-09-23T18:04:29.239Z,9.40
2022-09-23T18:07:30.795Z,8.30
2022-09-23T18:10:32.602Z,7.53
2022-09-23T18:13:34.189Z,8.70
2022-09-23T18:16:39.400Z,9.03
2022-09-23T18:19:41.108Z,9.00
2022-09-23T18:22:42.678Z,8.83
2022-09-23T18:25:44.276Z,9.40
2022-09-23T18:28:46.036Z,8.30
2022-09-23T18:31:49.325Z,8.30
2022-09-23T18:34:51.053Z,8.47
2022-09-23T18:37:52.646Z,9.10
2022-09-23T18:40:57.660Z,9.50
2022-09-23T18:43:59.349Z,10.00
2022-09-23T18:47:01.006Z,9.83
2022-09-23T18:50:21.161Z,7.27
2022-09-23T18:53:24.031Z,9.50
2022-09-23T18:56:34.461Z,9.17
2022-09-23T18:59:36.271Z,7.57
2022-09-23T19:02:37.867Z,7.40
2022-09-23T19:05:39.516Z,6.67
2022-09-23T19:08:42.043Z,6.83
2022-09-23T19:11:44.282Z,15.53
2022-09-23T19:14:45.872Z,14.97
2022-09-23T19:17:47.459Z,13.60
2022-09-23T19:20:54.647Z,15.00
2022-09-23T19:24:00.573Z,16.37
2022-09-23T19:27:03.238Z,10.93
2022-09-23T19:30:06.999Z,9.60
2022-09-23T19:33:09.848Z,8.60
2022-09-23T19:36:12.179Z,6.40
2022-09-23T19:39:22.315Z,6.80
2022-09-23T19:42:27.517Z,11.17
2022-09-23T19:45:32.788Z,12.70
2022-09-23T19:48:34.343Z,12.83
2022-09-23T19:51:35.995Z,11.20
2022-09-23T19:54:37.562Z,11.47
2022-09-23T19:57:39.146Z,12.00
2022-09-23T20:00:41.121Z,14.10
2022-09-23T20:03:44.726Z,13.50
2022-09-23T20:06:48.673Z,11.53
2022-09-23T20:09:50.342Z,13.00
2022-09-23T20:12:52.819Z,12.93
2022-09-23T20:15:54.460Z,12.53
2022-09-23T20:18:56.496Z,10.40
2022-09-23T20:22:16.564Z,13.97
2022-09-23T20:25:18.177Z,13.50
2022-09-23T20:28:21.170Z,10.10
2022-09-23T20:31:23.305Z,10.10
2022-09-23T20:34:24.992Z,10.73
2022-09-23T20:37:26.546Z,10.30
2022-09-23T20:40:28.153Z,10.37
2022-09-23T20:43:32.209Z,9.03
2022-09-23T20:46:34.368Z,10.00
2022-09-23T20:49:36.383Z,10.07
2022-09-23T21:26:26.376Z,8.37
2022-09-23T22:49:07.319Z,9.30
2022-09-23T22:52:09.141Z,8.23
2022-09-23T22:55:11.694Z,9.70
2022-09-23T22:58:31.311Z,8.30
2022-09-23T23:01:34.940Z,8.00
2022-09-23T23:04:37.060Z,9.40
2022-09-23T23:07:39.052Z,9.87
2022-09-23T23:10:40.887Z,9.10
2022-09-23T23:13:43.050Z,9.97
2022-09-23T23:16:45.979Z,9.30
2022-09-23T23:19:47.586Z,8.67
2022-09-23T23:22:49.427Z,9.83
2022-09-23T23:25:50.977Z,9.30
2022-09-23T23:28:53.762Z,9.10
2022-09-23T23:31:55.401Z,8.80
2022-09-23T23:34:57.089Z,9.60
2022-09-23T23:37:58.822Z,9.50
2022-09-23T23:41:10.985Z,9.57
2022-09-23T23:44:12.657Z,9.60
2022-09-23T23:47:14.517Z,8.70
2022-09-23T23:50:16.228Z,9.40
2022-09-23T23:53:19.170Z,9.30
2022-09-23T23:56:25.610Z,8.20
2022-09-23T23:59:28.711Z,7.80
